createdAt,value
2023-02-02T00:01:46.501Z,3.90
2023-02-02T00:04:21.022Z,3.92
2023-02-02T00:06:52.077Z,3.93
2023-02-02T00:09:23.575Z,3.94
2023-02-02T00:11:54.508Z,3.95
2023-02-02T00:14:26.812Z,3.96
2023-02-02T00:16:59.090Z,3.97
2023-02-02T00:19:31.671Z,3.97
2023-02-02T00:22:03.387Z,3.99
2023-02-02T00:24:34.304Z,4.00
2023-02-02T00:27:05.385Z,4.01
2023-02-02T00:29:36.839Z,4.02
2023-02-02T00:32:08.361Z,4.02
2023-02-02T00:34:39.338Z,4.00
2023-02-02T00:37:10.317Z,4.00
2023-02-02T00:39:41.422Z,4.01
2023-02-02T00:42:13.447Z,4.03
2023-02-02T00:45:01.798Z,4.04
2023-02-02T00:47:32.701Z,4.04
2023-02-02T00:50:03.758Z,4.06
2023-02-02T00:52:34.759Z,4.07
2023-02-02T00:55:06.375Z,4.04
2023-02-02T00:57:37.667Z,4.02
2023-02-02T01:00:14.140Z,4.02
2023-02-02T01:02:45.437Z,4.04
2023-02-02T01:05:16.865Z,4.04
2023-02-02T01:07:48.146Z,4.04
2023-02-02T01:10:20.141Z,4.04
2023-02-02T01:12:51.119Z,4.03
2023-02-02T01:15:22.299Z,3.98
2023-02-02T01:17:53.581Z,3.94
2023-02-02T01:20:24.850Z,3.90
2023-02-02T01:22:55.802Z,3.85
2023-02-02T01:25:27.682Z,3.81
2023-02-02T01:27:59.267Z,3.78
2023-02-02T01:30:32.253Z,3.73
2023-02-02T01:33:03.194Z,3.69
2023-02-02T01:35:34.156Z,3.65
2023-02-02T01:38:05.101Z,3.64
2023-02-02T01:40:36.029Z,3.61
2023-02-02T01:43:23.469Z,3.58
2023-02-02T01:45:56.112Z,3.54
2023-02-02T01:48:33.921Z,3.52
2023-02-02T01:51:12.452Z,3.49
2023-02-02T01:53:44.917Z,3.47
2023-02-02T01:56:20.383Z,3.45
2023-02-02T01:58:51.641Z,3.44
2023-02-02T02:01:22.580Z,3.43
2023-02-02T02:03:54.277Z,3.42
2023-02-02T02:06:26.444Z,3.44
2023-02-02T02:09:03.464Z,3.44
2023-02-02T02:11:35.970Z,3.44
2023-02-02T02:14:28.104Z,3.44
2023-02-02T02:17:13.675Z,3.43
2023-02-02T02:20:28.702Z,3.43
2023-02-02T02:23:44.833Z,3.44
2023-02-02T02:26:38.725Z,3.45
2023-02-02T02:29:31.109Z,3.46
2023-02-02T02:32:13.290Z,3.48
2023-02-02T02:34:55.486Z,3.51
2023-02-02T02:37:34.893Z,3.53
2023-02-02T02:40:17.004Z,3.55
2023-02-02T02:42:51.448Z,3.56
2023-02-02T02:45:23.530Z,3.55
2023-02-02T02:47:56.176Z,3.55
2023-02-02T02:50:27.558Z,3.57
2023-02-02T02:53:06.435Z,3.59
2023-02-02T02:55:48.124Z,3.61
2023-02-02T02:58:27.565Z,3.61
2023-02-02T03:01:09.145Z,3.63
2023-02-02T03:03:55.304Z,3.65
2023-02-02T03:06:31.049Z,3.66
2023-02-02T03:09:06.247Z,3.66
2023-02-02T03:11:36.767Z,3.67
2023-02-02T03:14:09.938Z,3.67
2023-02-02T03:16:41.263Z,3.66
2023-02-02T03:19:12.493Z,3.68
2023-02-02T03:21:43.472Z,3.72
2023-02-02T03:24:14.421Z,3.76
2023-02-02T03:26:46.371Z,3.79
2023-02-02T03:29:17.911Z,3.82
2023-02-02T03:31:49.472Z,3.85
2023-02-02T03:34:20.649Z,3.88
2023-02-02T03:36:51.590Z,3.90
2023-02-02T03:39:22.599Z,3.91
2023-02-02T03:41:53.819Z,3.92
2023-02-02T03:44:24.752Z,3.94
2023-02-02T03:46:57.497Z,3.96
2023-02-02T03:49:28.550Z,3.98
2023-02-02T03:51:59.463Z,4.00
2023-02-02T03:54:30.409Z,4.02
2023-02-02T03:57:01.460Z,4.02
2023-02-02T03:59:32.478Z,4.03
2023-02-02T04:02:03.435Z,4.04
2023-02-02T04:04:34.428Z,4.04
2023-02-02T04:07:05.356Z,4.04
2023-02-02T04:09:36.342Z,4.05
2023-02-02T04:12:07.661Z,4.05
2023-02-02T04:14:38.717Z,4.06
2023-02-02T04:17:09.645Z,4.08
2023-02-02T04:19:40.575Z,4.09
2023-02-02T04:22:11.613Z,4.09
2023-02-02T04:24:42.572Z,4.08
2023-02-02T04:27:13.543Z,4.08
2023-02-02T04:29:44.539Z,4.08
2023-02-02T04:32:17.776Z,4.07
2023-02-02T04:34:48.846Z,4.07
2023-02-02T04:37:19.980Z,4.06
2023-02-02T04:39:50.943Z,4.05
2023-02-02T04:42:21.906Z,4.04
2023-02-02T04:44:53.071Z,4.02
2023-02-02T04:47:23.989Z,4.02
2023-02-02T04:49:54.921Z,4.01
2023-02-02T04:52:26.276Z,4.02
2023-02-02T04:54:57.227Z,4.02
2023-02-02T04:57:29.451Z,4.03
2023-02-02T05:00:00.457Z,4.03
2023-02-02T05:02:31.616Z,4.02
2023-02-02T05:05:02.742Z,4.01
2023-02-02T05:07:34.121Z,4.03
2023-02-02T05:10:05.362Z,4.04
2023-02-02T05:12:36.278Z,4.07
2023-02-02T05:15:08.502Z,4.09
2023-02-02T05:17:39.441Z,4.10
2023-02-02T05:20:12.804Z,4.12
2023-02-02T05:22:43.917Z,4.13
2023-02-02T05:25:14.850Z,4.16
2023-02-02T05:27:47.259Z,4.18
2023-02-02T05:30:19.556Z,4.19
2023-02-02T05:32:50.475Z,4.20
2023-02-02T05:35:21.582Z,4.22
2023-02-02T05:37:52.542Z,4.22
2023-02-02T05:40:23.574Z,4.21
2023-02-02T05:42:54.626Z,4.20
2023-02-02T05:45:25.916Z,4.19
2023-02-02T05:47:58.399Z,4.19
2023-02-02T05:50:29.427Z,4.18
2023-02-02T05:53:06.245Z,4.17
2023-02-02T05:55:37.632Z,4.17
2023-02-02T05:58:08.669Z,4.19
2023-02-02T06:00:41.232Z,4.19
2023-02-02T06:03:13.248Z,4.20
2023-02-02T06:05:44.389Z,4.23
2023-02-02T06:08:15.308Z,4.25
2023-02-02T06:10:46.342Z,4.26
2023-02-02T06:13:18.397Z,4.26
2023-02-02T06:15:50.055Z,4.25
2023-02-02T06:18:21.093Z,4.27
2023-02-02T06:20:57.008Z,4.27
2023-02-02T06:23:28.913Z,4.29
2023-02-02T06:26:00.888Z,4.29
2023-02-02T06:28:32.453Z,4.30
2023-02-02T06:31:08.763Z,4.28
2023-02-02T06:33:40.011Z,4.26
2023-02-02T06:36:12.247Z,4.25
2023-02-02T06:38:43.215Z,4.23
2023-02-02T06:41:14.209Z,4.25
2023-02-02T06:43:45.383Z,4.28
2023-02-02T06:46:17.430Z,4.34
2023-02-02T06:48:48.618Z,4.38
2023-02-02T06:51:20.076Z,4.41
2023-02-02T06:53:51.655Z,4.43
2023-02-02T06:56:23.124Z,4.41
2023-02-02T06:58:54.031Z,4.41
2023-02-02T07:01:25.697Z,4.38
2023-02-02T07:03:57.020Z,4.37
2023-02-02T07:06:29.787Z,4.37
2023-02-02T07:09:03.381Z,4.40
2023-02-02T07:11:39.801Z,4.41
2023-02-02T07:14:19.402Z,4.39
2023-02-02T07:16:51.170Z,4.38
2023-02-02T07:19:22.089Z,4.38
2023-02-02T07:21:53.122Z,4.36
2023-02-02T07:24:24.084Z,4.34
2023-02-02T07:26:55.744Z,4.32
2023-02-02T07:29:26.840Z,4.34
2023-02-02T07:31:57.804Z,4.34
2023-02-02T07:34:29.050Z,4.34
2023-02-02T07:37:00.715Z,4.33
2023-02-02T07:39:35.694Z,4.33
2023-02-02T07:42:08.711Z,4.33
2023-02-02T07:44:40.331Z,4.32
2023-02-02T07:47:11.378Z,4.31
2023-02-02T07:49:42.398Z,4.30
2023-02-02T07:52:13.438Z,4.29
2023-02-02T07:54:44.475Z,4.29
2023-02-02T07:57:17.726Z,4.27
2023-02-02T07:59:50.468Z,4.29
2023-02-02T08:02:21.448Z,4.30
2023-02-02T08:04:52.415Z,4.29
2023-02-02T08:07:25.793Z,4.27
2023-02-02T08:09:56.794Z,4.25
2023-02-02T08:12:28.425Z,4.21
2023-02-02T08:14:59.448Z,4.18
2023-02-02T08:17:30.425Z,4.16
2023-02-02T08:20:01.369Z,4.14
2023-02-02T08:22:32.406Z,4.14
2023-02-02T08:25:03.396Z,4.14
2023-02-02T08:27:36.912Z,4.14
2023-02-02T08:30:10.947Z,4.13
2023-02-02T08:32:42.290Z,4.10
2023-02-02T08:35:13.357Z,4.06
2023-02-02T08:37:44.312Z,4.02
2023-02-02T08:40:16.460Z,4.01
2023-02-02T08:42:51.203Z,4.02
2023-02-02T08:46:04.420Z,4.06
2023-02-02T08:48:14.753Z,4.08
2023-02-02T08:50:46.271Z,4.09
2023-02-02T08:53:17.248Z,4.09
2023-02-02T08:55:48.370Z,4.11
2023-02-02T08:58:19.315Z,4.13
2023-02-02T09:00:51.130Z,4.15
2023-02-02T09:03:22.207Z,4.18
2023-02-02T09:05:53.196Z,4.24
2023-02-02T09:08:24.158Z,4.33
2023-02-02T09:10:55.037Z,4.41
2023-02-02T09:13:26.413Z,4.50
2023-02-02T09:16:02.409Z,4.60
2023-02-02T09:18:35.904Z,4.67
2023-02-02T09:21:09.717Z,4.74
2023-02-02T09:23:44.324Z,4.80
2023-02-02T09:26:20.234Z,4.86
2023-02-02T09:28:53.614Z,4.90
2023-02-02T09:31:26.078Z,4.96
2023-02-02T09:34:01.097Z,5.02
2023-02-02T09:36:32.852Z,5.08
2023-02-02T09:39:04.629Z,5.14
2023-02-02T09:42:02.833Z,5.19
2023-02-02T09:45:03.149Z,5.23
2023-02-02T09:47:53.519Z,5.23
2023-02-02T09:50:37.963Z,5.26
2023-02-02T09:53:18.543Z,5.27
2023-02-02T09:55:52.909Z,5.31
2023-02-02T09:58:27.489Z,5.33
2023-02-02T10:01:04.377Z,5.34
2023-02-02T10:03:38.506Z,5.36
2023-02-02T10:06:22.751Z,5.37
2023-02-02T10:08:58.647Z,5.40
2023-02-02T10:11:38.740Z,5.44
2023-02-02T10:14:21.084Z,5.49
2023-02-02T10:16:56.289Z,5.54
2023-02-02T10:19:33.010Z,5.56
2023-02-02T10:22:08.767Z,5.57
2023-02-02T10:24:40.736Z,5.60
2023-02-02T10:27:26.468Z,5.63
2023-02-02T10:30:03.678Z,5.64
2023-02-02T10:32:41.432Z,5.64
2023-02-02T10:35:30.847Z,5.66
2023-02-02T10:38:10.704Z,5.65
2023-02-02T10:40:54.138Z,5.63
2023-02-02T10:43:57.551Z,5.58
2023-02-02T10:46:33.731Z,5.54
2023-02-02T10:49:16.725Z,5.54
2023-02-02T10:51:58.133Z,5.56
2023-02-02T10:54:58.866Z,5.57
2023-02-02T10:57:56.576Z,5.57
2023-02-02T11:00:31.816Z,5.56
2023-02-02T11:03:04.850Z,5.56
2023-02-02T11:05:54.334Z,5.57
2023-02-02T11:08:34.016Z,5.55
2023-02-02T11:11:19.137Z,5.54
2023-02-02T11:13:56.086Z,5.53
2023-02-02T11:16:41.553Z,5.49
2023-02-02T11:19:31.595Z,5.46
2023-02-02T11:22:04.863Z,5.44
2023-02-02T11:24:42.199Z,5.42
2023-02-02T11:27:22.321Z,5.43
2023-02-02T11:29:55.720Z,5.44
2023-02-02T11:32:36.088Z,5.45
2023-02-02T11:35:25.657Z,5.47
2023-02-02T11:38:09.512Z,5.49
2023-02-02T11:40:47.442Z,5.55
2023-02-02T11:43:21.717Z,5.66
2023-02-02T11:46:00.264Z,5.76
2023-02-02T11:48:37.002Z,5.85
2023-02-02T11:51:09.289Z,5.95
2023-02-02T11:53:47.464Z,6.05
2023-02-02T11:56:25.260Z,6.11
2023-02-02T11:58:59.501Z,6.14
2023-02-02T12:01:32.941Z,6.17
2023-02-02T12:04:22.051Z,6.20
2023-02-02T12:06:53.266Z,6.22
2023-02-02T12:09:26.603Z,6.22
2023-02-02T12:12:06.867Z,6.22
2023-02-02T12:14:49.193Z,6.17
2023-02-02T12:17:39.087Z,6.11
2023-02-02T12:20:24.215Z,6.07
2023-02-02T12:23:32.042Z,6.04
2023-02-02T12:26:26.732Z,6.00
2023-02-02T12:29:19.907Z,5.96
2023-02-02T12:32:01.387Z,5.92
2023-02-02T12:34:46.237Z,5.87
2023-02-02T12:37:30.312Z,5.81
2023-02-02T12:40:19.797Z,5.74
2023-02-02T12:43:08.778Z,5.65
2023-02-02T12:46:35.951Z,5.58
2023-02-02T12:49:39.680Z,5.52
2023-02-02T12:52:26.553Z,5.42
2023-02-02T12:55:24.665Z,5.32
2023-02-02T12:58:11.417Z,5.24
2023-02-02T13:00:56.213Z,5.19
2023-02-02T13:03:38.070Z,5.14
2023-02-02T13:06:42.654Z,5.08
2023-02-02T13:09:19.006Z,5.06
2023-02-02T13:11:55.138Z,5.06
2023-02-02T13:14:27.357Z,5.06
2023-02-02T13:17:02.356Z,5.08
2023-02-02T13:19:41.731Z,5.05
2023-02-02T13:22:20.048Z,5.04
2023-02-02T13:24:55.288Z,5.06
2023-02-02T13:27:25.240Z,5.08
2023-02-02T13:30:03.263Z,5.09
2023-02-02T13:32:37.438Z,5.08
2023-02-02T13:35:18.311Z,5.08
2023-02-02T13:37:55.703Z,5.09
2023-02-02T13:40:33.922Z,5.08
2023-02-02T13:43:16.772Z,5.11
2023-02-02T13:45:56.859Z,5.11
2023-02-02T13:48:40.998Z,5.11
2023-02-02T13:51:46.858Z,5.14
2023-02-02T13:54:50.724Z,5.20
2023-02-02T13:57:41.234Z,5.26
2023-02-02T14:00:21.142Z,5.32
2023-02-02T14:02:55.442Z,5.41
2023-02-02T14:05:29.557Z,5.49
2023-02-02T14:08:08.478Z,5.56
2023-02-02T14:10:43.687Z,5.64
2023-02-02T14:13:36.447Z,5.72
2023-02-02T14:16:21.829Z,5.78
2023-02-02T14:19:00.284Z,5.80
2023-02-02T14:22:01.189Z,5.80
2023-02-02T14:24:54.880Z,5.79
2023-02-02T14:27:58.205Z,5.76
2023-02-02T14:30:35.444Z,5.73
2023-02-02T14:33:28.516Z,5.69
2023-02-02T14:36:03.943Z,5.67
2023-02-02T14:39:05.436Z,5.66
2023-02-02T14:42:28.522Z,5.66
2023-02-02T14:45:35.178Z,5.64
2023-02-02T14:48:13.054Z,5.63
2023-02-02T14:50:59.205Z,5.61
2023-02-02T14:53:34.756Z,5.56
2023-02-02T14:56:09.691Z,5.53
2023-02-02T14:58:45.955Z,5.48
2023-02-02T15:01:30.877Z,5.42
2023-02-02T15:04:26.814Z,5.37
2023-02-02T15:06:59.399Z,5.34
2023-02-02T15:09:39.160Z,5.29
2023-02-02T15:12:21.783Z,5.25
2023-02-02T15:14:59.290Z,5.16
2023-02-02T15:17:44.740Z,5.10
2023-02-02T15:20:21.912Z,5.05
2023-02-02T15:22:58.124Z,5.00
2023-02-02T15:25:33.819Z,4.96
2023-02-02T15:28:15.119Z,4.87
2023-02-02T15:30:50.804Z,4.74
2023-02-02T15:33:30.202Z,4.59
2023-02-02T15:36:04.703Z,4.42
2023-02-02T15:38:40.314Z,4.30
2023-02-02T15:41:19.944Z,4.20
2023-02-02T15:43:51.630Z,4.13
2023-02-02T15:46:26.531Z,4.06
2023-02-02T15:49:33.819Z,3.99
2023-02-02T15:52:15.008Z,3.92
2023-02-02T15:54:54.462Z,3.88
2023-02-02T15:57:35.390Z,3.82
2023-02-02T16:00:27.662Z,3.76
2023-02-02T16:03:04.741Z,3.70
2023-02-02T16:05:51.702Z,3.65
2023-02-02T16:08:27.586Z,3.60
2023-02-02T16:11:09.692Z,3.54
2023-02-02T16:13:42.153Z,3.50
2023-02-02T16:16:26.608Z,3.47
2023-02-02T16:19:16.862Z,3.46
2023-02-02T16:21:54.915Z,3.46
2023-02-02T16:24:29.686Z,3.45
2023-02-02T16:27:02.541Z,3.46
2023-02-02T16:29:34.367Z,3.47
2023-02-02T16:32:06.538Z,3.46
2023-02-02T16:34:47.682Z,3.46
2023-02-02T16:37:23.300Z,3.45
2023-02-02T16:39:54.658Z,3.46
2023-02-02T16:42:28.762Z,3.49
2023-02-02T16:45:01.463Z,3.51
2023-02-02T16:47:43.032Z,3.54
2023-02-02T16:50:31.882Z,3.59
2023-02-02T16:53:06.723Z,3.62
2023-02-02T16:55:50.162Z,3.61
2023-02-02T16:58:25.013Z,3.62
2023-02-02T17:01:14.136Z,3.62
2023-02-02T17:03:53.424Z,3.62
2023-02-02T17:06:45.784Z,3.63
2023-02-02T17:09:36.536Z,3.63
2023-02-02T17:12:34.500Z,3.63
2023-02-02T17:15:33.391Z,3.63
2023-02-02T17:18:06.569Z,3.64
2023-02-02T17:20:37.756Z,3.66
2023-02-02T17:23:17.231Z,3.69
2023-02-02T17:25:49.024Z,3.70
2023-02-02T17:28:23.435Z,3.72
2023-02-02T17:31:02.914Z,3.73
2023-02-02T17:33:36.750Z,3.74
2023-02-02T17:36:08.543Z,3.74
2023-02-02T17:38:39.760Z,3.74
2023-02-02T17:41:14.387Z,3.73
2023-02-02T17:43:45.636Z,3.72
2023-02-02T17:46:16.600Z,3.73
2023-02-02T17:48:47.537Z,3.74
2023-02-02T17:51:19.394Z,3.75
2023-02-02T17:53:50.348Z,3.77
2023-02-02T17:56:22.242Z,3.75
2023-02-02T17:58:53.169Z,3.74
2023-02-02T18:01:24.234Z,3.72
2023-02-02T18:03:56.137Z,3.69
2023-02-02T18:06:27.363Z,3.62
2023-02-02T18:08:58.190Z,3.58
2023-02-02T18:11:29.067Z,3.56
2023-02-02T18:14:02.111Z,3.56
2023-02-02T18:16:33.439Z,3.56
2023-02-02T18:19:04.632Z,3.56
2023-02-02T18:21:35.959Z,3.56
2023-02-02T18:24:07.166Z,3.53
2023-02-02T18:26:38.033Z,3.53
2023-02-02T18:29:08.916Z,3.54
2023-02-02T18:31:42.249Z,3.54
2023-02-02T18:34:13.403Z,3.56
2023-02-02T18:36:44.302Z,3.57
2023-02-02T18:39:15.265Z,3.56
2023-02-02T18:41:46.137Z,3.56
2023-02-02T18:44:17.315Z,3.56
2023-02-02T18:46:48.365Z,3.57
2023-02-02T18:49:19.415Z,3.57
2023-02-02T18:51:50.386Z,3.57
2023-02-02T18:54:22.439Z,3.57
2023-02-02T18:56:54.044Z,3.56
2023-02-02T18:59:24.999Z,3.54
2023-02-02T19:01:56.283Z,3.50
2023-02-02T19:04:27.467Z,3.47
2023-02-02T19:07:17.659Z,3.45
2023-02-02T19:09:49.329Z,3.42
2023-02-02T19:12:20.613Z,3.38
2023-02-02T19:14:51.612Z,3.37
2023-02-02T19:17:25.383Z,3.35
2023-02-02T19:20:01.815Z,3.34
2023-02-02T19:22:33.709Z,3.34
2023-02-02T19:25:14.072Z,3.34
2023-02-02T19:27:45.229Z,3.34
2023-02-02T19:30:23.908Z,3.35
2023-02-02T19:32:55.900Z,3.36
2023-02-02T19:35:29.063Z,3.35
2023-02-02T19:38:03.837Z,3.36
2023-02-02T19:40:36.408Z,3.36
2023-02-02T19:43:21.043Z,3.35
2023-02-02T19:45:52.425Z,3.33
2023-02-02T19:48:26.100Z,3.32
2023-02-02T19:51:00.426Z,3.31
2023-02-02T19:53:42.645Z,3.27
2023-02-02T19:56:26.050Z,3.23
2023-02-02T19:58:57.753Z,3.18
2023-02-02T20:01:34.016Z,3.12
2023-02-02T20:04:06.735Z,3.09
2023-02-02T20:06:52.670Z,3.07
2023-02-02T20:09:35.605Z,3.06
2023-02-02T20:12:23.468Z,3.05
2023-02-02T20:14:56.617Z,3.05
2023-02-02T20:17:34.540Z,3.09
2023-02-02T20:20:23.163Z,3.10
2023-02-02T20:22:54.585Z,3.11
2023-02-02T20:25:26.269Z,3.11
2023-02-02T20:27:59.044Z,3.12
2023-02-02T20:30:32.007Z,3.13
2023-02-02T20:33:05.815Z,3.13
2023-02-02T20:35:41.858Z,3.14
2023-02-02T20:38:25.657Z,3.16
2023-02-02T20:40:58.047Z,3.15
2023-02-02T20:43:29.127Z,3.14
2023-02-02T20:46:00.127Z,3.12
2023-02-02T20:48:31.240Z,3.08
2023-02-02T20:51:03.351Z,3.02
2023-02-02T20:53:36.100Z,2.96
2023-02-02T20:56:09.178Z,2.87
2023-02-02T20:58:40.519Z,2.80
2023-02-02T21:01:11.816Z,2.75
2023-02-02T21:03:43.386Z,2.69
2023-02-02T21:06:14.551Z,2.63
2023-02-02T21:08:50.458Z,2.59
2023-02-02T21:11:22.402Z,2.55
2023-02-02T21:13:55.307Z,2.52
2023-02-02T21:16:27.079Z,2.49
2023-02-02T21:18:58.471Z,2.48
2023-02-02T21:21:29.917Z,2.47
2023-02-02T21:24:01.225Z,2.47
2023-02-02T21:26:36.702Z,2.46
2023-02-02T21:29:07.912Z,2.47
2023-02-02T21:31:40.169Z,2.49
2023-02-02T21:34:11.130Z,2.51
2023-02-02T21:36:46.696Z,2.54
2023-02-02T21:39:25.838Z,2.58
2023-02-02T21:42:11.606Z,2.60
2023-02-02T21:44:48.139Z,2.62
2023-02-02T21:47:30.574Z,2.62
2023-02-02T21:50:18.475Z,2.60
2023-02-02T21:52:49.551Z,2.57
2023-02-02T21:55:35.553Z,2.54
2023-02-02T21:58:20.119Z,2.49
2023-02-02T22:00:51.709Z,2.43
2023-02-02T22:03:38.361Z,2.37
2023-02-02T22:06:24.612Z,2.32
2023-02-02T22:09:00.578Z,2.27
2023-02-02T22:11:37.242Z,2.23
2023-02-02T22:14:19.427Z,2.20
2023-02-02T22:16:53.087Z,2.16
2023-02-02T22:19:36.387Z,2.12
2023-02-02T22:22:19.734Z,2.04
2023-02-02T22:24:58.167Z,2.00
2023-02-02T22:27:43.252Z,1.97
2023-02-02T22:30:27.035Z,1.92
2023-02-02T22:32:58.356Z,1.88
2023-02-02T22:35:29.545Z,1.87
2023-02-02T22:38:00.679Z,1.86
2023-02-02T22:40:32.241Z,1.87
2023-02-02T22:43:05.747Z,1.86
2023-02-02T22:45:37.256Z,1.84
2023-02-02T22:48:08.682Z,1.82
2023-02-02T22:50:42.003Z,1.78
2023-02-02T22:53:14.090Z,1.75
2023-02-02T22:55:45.056Z,1.71
2023-02-02T22:58:16.303Z,1.70
2023-02-02T23:00:47.381Z,1.68
2023-02-02T23:03:18.235Z,1.67
2023-02-02T23:05:49.428Z,1.67
2023-02-02T23:08:20.830Z,1.66
2023-02-02T23:10:52.050Z,1.66
2023-02-02T23:13:23.092Z,1.67
2023-02-02T23:19:54.399Z,1.70
2023-02-02T23:22:25.651Z,1.72
2023-02-02T23:24:56.906Z,1.77
2023-02-02T23:27:28.480Z,1.81
2023-02-02T23:29:59.419Z,1.84
2023-02-02T23:33:05.274Z,1.86
2023-02-02T23:35:42.129Z,1.86
2023-02-02T23:38:13.639Z,1.87
2023-02-02T23:40:44.701Z,1.88
2023-02-02T23:43:15.709Z,1.88
2023-02-02T23:45:47.031Z,1.90
2023-02-02T23:48:18.614Z,1.91
2023-02-02T23:50:49.620Z,1.92
2023-02-02T23:53:21.259Z,1.93
2023-02-02T23:55:52.229Z,1.96
2023-02-02T23:58:23.354Z,1.97
